Here is the Quick Look data you requested

The Data originates at the National Weather Service, and is made available here by the UAlbany Department of Atmospheric and Environmental Sciences

Surface Observations

KACK 250153Z AUTO 10007KT 10SM BKN110 09/07 A3020 RMK AO2 SLP227 T00890067=
KAQW 250152Z AUTO 00000KT 10SM CLR 11/03 A3014 RMK AO2 SLP210 T01110033=
KBAF 250153Z 18003KT 10SM CLR 14/04 A3016 RMK AO2 SLP215 T01440044=
KBED 250156Z 18006KT 10SM CLR 12/02 A3018 RMK AO2 SLP231 T01220017=
KBOS 250154Z 19005KT 10SM SCT130 BKN200 12/05 A3019 RMK AO2 SLP223 T01220050=
KBVY 250153Z AUTO 13004KT 10SM CLR 12/06 A3019 RMK AO2 SLP219 T01220056=
KCEF 250158Z 18004KT 10SM SCT150 BKN190 14/05 A3015 RMK AO2A SLP216 T01350048=
KCQX 250152Z AUTO 12004KT 10SM CLR 08/07 A3023 RMK AO2 SLP238 T00830072=
KEWB 250153Z 12004KT 10SM OVC095 10/06 A3020 RMK AO2 SLP224 T01000061=
KFIT 250152Z AUTO 14004KT 10SM CLR 16/03 A3018 RMK AO2 SLP220 T01560028=
KFMH 250155Z 10SM SCT080 BKN095 OVC110 09/07 A3022 RMK AO2 PWINO FZRANO TSNO
 WEA / WIND E20006KT=
KHYA 250156Z VRB03KT 10SM BKN120 09/07 A3020 RMK AO2 SLP226 T00940072=
KLWM 250154Z 09006KT 10SM CLR 14/07 A3021 RMK AO2 SLP229 T01440067=
KMQE 250156Z AUTO 18009KT 11/03 A3017 RMK AO1 SLP229 T01110033=
KMVY 250153Z AUTO 11013KT 10SM BKN120 10/07 A3020 RMK AO2 SLP225 T01000072 TSNO=
KORE 250152Z AUTO 00000KT 10SM CLR 12/05 A3017 RMK AO2 SLP218 T01170050 TSNO=
KORH 250154Z AUTO 18005KT 10SM CLR 13/02 A3018 RMK AO2 SLP220 T01330017=
KOWD 250153Z AUTO 17008KT 10SM CLR 12/04 A3019 RMK AO2 SLP223 T01220044=
KPSF 250154Z AUTO 10004KT 10SM CLR 14/01 A3014 RMK AO2 SLP193 T01390011=
KPVC 250156Z AUTO 17006KT 10SM CLR 09/07 A3022 RMK AO2 SLP231 T00890067=
KPYM 250152Z AUTO 15004KT 10SM BKN110 10/06 A3021 RMK AO2 SLP228 T01000056 TSNO=
KTAN 250152Z AUTO 15003KT 10SM BKN110 10/05 A3020 RMK AO2 SLP226 T01000050=